Time;durP1;ratioP1;P1;durP2;ratioP2;P2;SDS_P1;SDS_P2;PMS_P1;PMS_P2;Temp;Humidity;BMP_temperature;BMP_pressure;BME280_temperature;BME280_humidity;BME280_pressure;Samples;Min_cycle;Max_cycle;Signal;HPM_P1;HPM_P2
2022/09/29 00:01:47;;;;;;;11.90;6.30;;;9.20;1.00;;;;;;6203889;23;20417;-82
2022/09/29 00:04:19;;;;;;;13.63;6.67;;;9.20;1.00;;;;;;6205428;23;20401;-84
2022/09/29 00:06:48;;;;;;;11.33;6.97;;;9.20;1.00;;;;;;6203428;23;20544;-83
2022/09/29 00:09:20;;;;;;;12.33;7.43;;;9.10;1.00;;;;;;6162606;23;20462;-83
2022/09/29 00:11:48;;;;;;;12.80;6.85;;;9.10;1.00;;;;;;6205319;23;20917;-84
2022/09/29 00:14:20;;;;;;;12.60;7.47;;;9.10;1.00;;;;;;6204708;22;20221;-84
2022/09/29 00:16:49;;;;;;;12.87;7.40;;;9.10;1.00;;;;;;6201997;23;20396;-81
2022/09/29 00:19:18;;;;;;;12.53;7.70;;;9.10;1.00;;;;;;6204161;23;20421;-83
2022/09/29 00:21:48;;;;;;;12.70;7.57;;;9.10;1.00;;;;;;6202736;23;20390;-83
2022/09/29 00:24:18;;;;;;;13.52;7.50;;;9.10;1.00;;;;;;6204401;23;20416;-82
2022/09/29 00:26:46;;;;;;;14.88;7.95;;;9.00;1.00;;;;;;6208918;23;20202;-82
2022/09/29 00:29:18;;;;;;;13.30;7.88;;;9.00;1.00;;;;;;6205510;23;20216;-79
2022/09/29 00:32:08;;;;;;;13.25;7.57;;;8.90;1.00;;;;;;6202164;23;20220;-80
2022/09/29 00:34:41;;;;;;;14.07;8.07;;;8.90;1.00;;;;;;6205687;22;20198;-84
2022/09/29 00:37:16;;;;;;;16.23;8.10;;;8.90;1.00;;;;;;6202848;23;20245;-79
2022/09/29 00:40:08;;;;;;;13.93;8.00;;;8.90;1.00;;;;;;6181697;23;20410;-80
2022/09/29 00:42:37;;;;;;;14.10;8.00;;;8.90;1.00;;;;;;6159359;23;20277;-82
2022/09/29 00:45:18;;;;;;;14.95;8.75;;;8.90;1.00;;;;;;6203229;23;20244;-79
2022/09/29 00:47:58;;;;;;;14.45;8.40;;;8.90;1.00;;;;;;6211639;22;20193;-82
2022/09/29 00:50:37;;;;;;;13.10;7.95;;;8.80;1.00;;;;;;6216331;23;20198;-84
2022/09/29 00:53:29;;;;;;;13.60;8.05;;;8.80;1.00;;;;;;6165305;23;20212;-84
2022/09/29 00:59:17;;;;;;;14.15;8.40;;;8.60;1.00;;;;;;6173933;22;20262;-84
2022/09/29 01:01:56;;;;;;;13.48;7.72;;;8.60;1.00;;;;;;6172470;23;20214;-83
2022/09/29 01:04:50;;;;;;;14.00;8.30;;;8.50;1.00;;;;;;6192328;23;20214;-83
2022/09/29 01:07:26;;;;;;;13.52;7.95;;;8.50;1.00;;;;;;6173599;23;20194;-80
2022/09/29 01:09:57;;;;;;;12.32;7.40;;;8.40;1.00;;;;;;6172400;23;20213;-81
2022/09/29 01:12:28;;;;;;;14.15;8.55;;;8.40;1.00;;;;;;6174072;23;20278;-82
2022/09/29 01:18:00;;;;;;;12.57;8.50;;;8.30;1.00;;;;;;6159010;23;20214;-84
2022/09/29 01:20:39;;;;;;;15.55;8.80;;;8.20;1.00;;;;;;6174219;23;20221;-86
2022/09/29 01:23:39;;;;;;;13.55;8.20;;;8.20;1.00;;;;;;6174579;23;20210;-84
2022/09/29 01:29:59;;;;;;;14.57;9.10;;;8.10;1.00;;;;;;6171555;23;20221;-85
2022/09/29 01:32:59;;;;;;;12.52;7.95;;;8.10;1.00;;;;;;6174205;23;20257;-85
2022/09/29 01:35:39;;;;;;;15.10;8.65;;;8.10;1.00;;;;;;6176920;23;20202;-85
2022/09/29 01:38:32;;;;;;;14.85;8.13;;;8.10;1.00;;;;;;6172281;23;20213;-86
2022/09/29 01:41:10;;;;;;;13.90;8.27;;;8.10;1.00;;;;;;6172822;23;20573;-84
2022/09/29 01:43:56;;;;;;;14.50;8.50;;;8.10;1.00;;;;;;6169885;23;20202;-85
2022/09/29 01:46:36;;;;;;;14.40;8.05;;;8.10;1.00;;;;;;6174172;23;20225;-84
2022/09/29 01:49:10;;;;;;;14.18;8.27;;;8.10;1.00;;;;;;6174177;23;20214;-83
2022/09/29 01:51:46;;;;;;;14.95;8.88;;;8.10;1.00;;;;;;6173549;23;20207;-86
2022/09/29 01:54:25;;;;;;;13.68;8.70;;;8.20;1.00;;;;;;6173196;23;20199;-85
2022/09/29 01:56:56;;;;;;;15.85;8.52;;;8.20;1.00;;;;;;6160666;23;20216;-84
2022/09/29 01:59:30;;;;;;;16.08;8.80;;;8.20;1.00;;;;;;6177818;23;20270;-85
2022/09/29 02:02:07;;;;;;;16.40;10.10;;;8.20;1.00;;;;;;6166558;23;20218;-84
2022/09/29 02:04:41;;;;;;;14.80;8.63;;;8.10;1.00;;;;;;6166976;23;20646;-86
2022/09/29 02:07:17;;;;;;;16.65;8.68;;;8.10;1.00;;;;;;6166386;23;20218;-84
2022/09/29 02:09:51;;;;;;;15.98;9.30;;;8.10;1.00;;;;;;6166311;23;20214;-85
2022/09/29 02:12:22;;;;;;;15.95;9.23;;;8.10;1.00;;;;;;6165493;23;20280;-84
2022/09/29 02:14:54;;;;;;;15.63;10.10;;;8.10;1.00;;;;;;6164766;23;20791;-84
2022/09/29 02:17:22;;;;;;;15.35;9.02;;;8.00;1.00;;;;;;6161340;23;20211;-84
2022/09/29 02:19:52;;;;;;;17.33;9.70;;;8.10;1.00;;;;;;6162881;23;20802;-84
2022/09/29 02:22:21;;;;;;;17.67;9.70;;;8.10;1.00;;;;;;6159073;23;20256;-84
2022/09/29 02:24:53;;;;;;;15.70;10.05;;;8.10;1.00;;;;;;6195261;23;20254;-83
2022/09/29 02:27:27;;;;;;;17.77;10.10;;;8.20;1.00;;;;;;6164702;23;20225;-84
2022/09/29 02:30:01;;;;;;;15.85;9.02;;;8.30;1.00;;;;;;6173634;23;20201;-84
2022/09/29 02:32:40;;;;;;;14.10;9.38;;;8.30;1.00;;;;;;6171499;23;20212;-83
2022/09/29 02:35:20;;;;;;;19.08;9.07;;;8.40;1.00;;;;;;6180010;23;21017;-84
2022/09/29 02:38:01;;;;;;;16.00;9.48;;;8.40;1.00;;;;;;6170411;23;20416;-84
2022/09/29 02:40:38;;;;;;;15.50;9.38;;;8.40;1.00;;;;;;6161790;23;20222;-83
2022/09/29 02:43:31;;;;;;;17.15;9.90;;;8.50;1.00;;;;;;6182799;23;20440;-83
2022/09/29 02:46:17;;;;;;;17.58;10.18;;;8.60;1.00;;;;;;6174274;23;20206;-84
2022/09/29 02:49:26;;;;;;;15.40;10.02;;;8.60;1.00;;;;;;6175692;23;20209;-83
2022/09/29 02:52:10;;;;;;;20.95;10.90;;;8.50;1.00;;;;;;6167872;23;20242;-83
2022/09/29 02:55:00;;;;;;;15.90;9.80;;;8.40;1.00;;;;;;6169873;23;20204;-83
2022/09/29 02:57:40;;;;;;;18.67;11.40;;;8.40;1.00;;;;;;6165427;23;20229;-81
2022/09/29 03:00:12;;;;;;;18.95;12.40;;;8.40;1.00;;;;;;6174363;23;20226;-81
2022/09/29 03:02:41;;;;;;;15.77;10.65;;;8.50;1.00;;;;;;6159732;23;20214;-80
2022/09/29 03:05:16;;;;;;;16.60;11.25;;;8.60;1.00;;;;;;6172027;23;20225;-82
2022/09/29 03:08:04;;;;;;;20.77;12.85;;;8.60;1.00;;;;;;6175218;23;20214;-82
2022/09/29 03:10:37;;;;;;;19.88;13.07;;;8.60;1.00;;;;;;6173138;23;20218;-81
2022/09/29 03:13:07;;;;;;;19.77;12.05;;;8.60;1.00;;;;;;6175218;23;20207;-81
2022/09/29 03:15:37;;;;;;;22.27;13.65;;;8.60;1.00;;;;;;6174667;23;20226;-83
2022/09/29 03:18:07;;;;;;;19.35;12.45;;;8.70;1.00;;;;;;6174191;23;20213;-82
2022/09/29 03:20:35;;;;;;;21.42;13.50;;;8.80;1.00;;;;;;6174572;23;20214;-84
2022/09/29 03:23:07;;;;;;;20.17;12.07;;;8.70;1.00;;;;;;6175397;23;20219;-83
2022/09/29 03:25:35;;;;;;;22.50;13.73;;;8.70;1.00;;;;;;6173182;23;20211;-84
2022/09/29 03:28:05;;;;;;;23.40;13.57;;;8.80;1.00;;;;;;6172569;23;20782;-83
2022/09/29 03:30:37;;;;;;;20.40;12.65;;;8.80;1.00;;;;;;6173574;23;20274;-81
2022/09/29 03:33:07;;;;;;;21.92;13.82;;;8.80;1.00;;;;;;6175784;23;20254;-85
2022/09/29 03:35:35;;;;;;;21.42;13.88;;;8.80;1.00;;;;;;6172562;23;20221;-84
2022/09/29 03:38:05;;;;;;;24.25;13.55;;;8.80;1.00;;;;;;6174295;23;20211;-85
2022/09/29 03:40:35;;;;;;;19.60;12.55;;;8.80;1.00;;;;;;6173571;23;20207;-84
2022/09/29 03:43:07;;;;;;;19.83;12.60;;;8.90;1.00;;;;;;6175261;23;20215;-84
2022/09/29 03:45:38;;;;;;;27.92;14.40;;;8.90;1.00;;;;;;6173091;23;20266;-85
2022/09/29 03:48:05;;;;;;;19.20;13.40;;;8.90;1.00;;;;;;6168279;23;20229;-85
2022/09/29 03:50:45;;;;;;;22.17;13.53;;;9.00;1.00;;;;;;6174239;23;20266;-85
2022/09/29 03:53:16;;;;;;;20.20;13.30;;;8.90;1.00;;;;;;6169797;23;20467;-84
2022/09/29 03:55:55;;;;;;;20.00;13.30;;;9.00;1.00;;;;;;6174063;23;20218;-85
2022/09/29 03:58:24;;;;;;;19.17;12.40;;;8.90;1.00;;;;;;6169260;23;20268;-85
2022/09/29 04:00:54;;;;;;;21.13;13.45;;;8.90;1.00;;;;;;6172558;23;20214;-85
2022/09/29 04:03:23;;;;;;;24.65;14.05;;;9.00;1.00;;;;;;6168613;23;20238;-85
2022/09/29 04:05:56;;;;;;;22.88;13.60;;;9.00;1.00;;;;;;6172100;23;20214;-86
2022/09/29 04:08:44;;;;;;;22.02;14.18;;;9.10;1.00;;;;;;6171254;23;20750;-85
2022/09/29 04:11:14;;;;;;;22.13;14.30;;;9.10;1.00;;;;;;6171223;23;20273;-85
2022/09/29 04:13:56;;;;;;;;;;;;;;;;;;;;;
2022/09/29 04:16:23;;;;;;;22.33;13.83;;;9.20;1.00;;;;;;6168958;23;41814;-84
2022/09/29 04:18:53;;;;;;;25.83;14.60;;;9.20;1.00;;;;;;6172916;23;20407;-84
2022/09/29 04:21:23;;;;;;;22.17;15.47;;;9.10;1.00;;;;;;6172279;23;20450;-82
2022/09/29 04:23:55;;;;;;;23.25;14.70;;;9.10;1.00;;;;;;6173476;23;20403;-84
2022/09/29 04:26:24;;;;;;;25.55;16.33;;;9.10;1.00;;;;;;6177139;23;20218;-83
2022/09/29 04:28:51;;;;;;;23.98;14.30;;;9.10;1.00;;;;;;6170685;23;20234;-80
2022/09/29 04:31:21;;;;;;;22.37;14.77;;;9.10;1.00;;;;;;6184930;23;20206;-77
2022/09/29 04:33:49;;;;;;;22.48;14.38;;;9.10;1.00;;;;;;6180535;23;20387;-79
2022/09/29 04:36:17;;;;;;;20.63;13.47;;;9.00;1.00;;;;;;6169127;23;20214;-79
2022/09/29 04:38:49;;;;;;;22.85;14.35;;;9.10;1.00;;;;;;6174389;23;20461;-79
2022/09/29 04:41:23;;;;;;;24.30;15.17;;;9.00;1.00;;;;;;6170990;23;20261;-80
2022/09/29 04:43:56;;;;;;;23.80;14.80;;;9.00;1.00;;;;;;6163565;23;20414;-79
2022/09/29 04:46:24;;;;;;;19.43;12.60;;;9.00;1.00;;;;;;6165675;23;20217;-80
2022/09/29 04:48:51;;;;;;;22.05;13.65;;;9.00;1.00;;;;;;6166626;23;20394;-81
2022/09/29 04:51:17;;;;;;;22.48;14.95;;;9.00;1.00;;;;;;6171939;23;20221;-79
2022/09/29 04:53:47;;;;;;;20.27;13.07;;;9.00;1.00;;;;;;6166401;23;20219;-80
2022/09/29 04:56:14;;;;;;;20.52;13.50;;;9.00;1.00;;;;;;6165881;23;20439;-79
2022/09/29 04:58:42;;;;;;;20.40;12.80;;;9.10;1.00;;;;;;6165985;23;20725;-79
2022/09/29 05:01:12;;;;;;;23.60;14.77;;;9.10;1.00;;;;;;6165569;23;20525;-78
2022/09/29 05:03:39;;;;;;;23.33;13.40;;;9.10;1.00;;;;;;6161395;23;20214;-77
2022/09/29 05:06:07;;;;;;;30.30;14.85;;;9.10;1.00;;;;;;6162969;23;20215;-82
2022/09/29 05:08:34;;;;;;;21.58;13.90;;;9.10;1.00;;;;;;6161261;23;20258;-79
2022/09/29 05:11:06;;;;;;;21.80;13.68;;;9.10;1.00;;;;;;6166731;23;20880;-79
2022/09/29 05:13:34;;;;;;;20.27;13.15;;;9.10;1.00;;;;;;6168804;23;20222;-80
2022/09/29 05:16:05;;;;;;;21.63;14.50;;;9.10;1.00;;;;;;6165364;23;20537;-81
2022/09/29 05:18:33;;;;;;;22.88;15.95;;;9.20;1.00;;;;;;6165639;23;20225;-81
2022/09/29 05:21:03;;;;;;;23.23;13.73;;;9.20;1.00;;;;;;6165025;23;20252;-81
2022/09/29 05:23:30;;;;;;;21.70;14.23;;;9.30;1.00;;;;;;6161275;23;20522;-81
2022/09/29 05:26:02;;;;;;;18.90;11.87;;;9.30;1.00;;;;;;6162798;23;20214;-81
2022/09/29 05:31:07;;;;;;;21.00;13.47;;;9.40;1.00;;;;;;6195483;23;20439;-80
2022/09/29 05:33:36;;;;;;;20.67;13.55;;;9.40;1.00;;;;;;6194330;23;20521;-80
2022/09/29 05:36:06;;;;;;;22.52;13.30;;;9.40;1.00;;;;;;6198318;23;20206;-80
2022/09/29 05:38:34;;;;;;;22.58;14.77;;;9.40;1.00;;;;;;6194580;23;20285;-83
2022/09/29 05:41:04;;;;;;;18.38;12.38;;;9.40;1.00;;;;;;6194753;23;20288;-84
2022/09/29 05:43:31;;;;;;;22.42;14.45;;;9.50;1.00;;;;;;6192017;23;20214;-85
2022/09/29 05:46:02;;;;;;;24.40;15.07;;;9.50;1.00;;;;;;6194246;23;20832;-82
2022/09/29 05:48:31;;;;;;;25.63;14.17;;;9.50;1.00;;;;;;6194715;23;20418;-80
2022/09/29 05:50:59;;;;;;;20.60;12.98;;;9.50;1.00;;;;;;6193250;23;20529;-80
2022/09/29 05:53:29;;;;;;;25.02;14.35;;;9.50;1.00;;;;;;6192993;23;20328;-79
2022/09/29 05:55:56;;;;;;;19.92;12.73;;;9.50;1.00;;;;;;6194485;23;20218;-78
2022/09/29 05:58:22;;;;;;;20.90;13.25;;;9.60;1.00;;;;;;6192583;23;20882;-78
2022/09/29 06:00:49;;;;;;;23.05;13.80;;;9.40;1.00;;;;;;6194036;23;20205;-78
2022/09/29 06:03:16;;;;;;;21.30;13.15;;;9.40;1.00;;;;;;6192593;23;20942;-79
2022/09/29 06:05:44;;;;;;;19.77;13.13;;;9.30;1.00;;;;;;6194710;23;20305;-79
2022/09/29 06:08:11;;;;;;;21.33;14.35;;;9.40;1.00;;;;;;6190745;23;20222;-79
2022/09/29 06:10:38;;;;;;;25.23;14.83;;;9.50;1.00;;;;;;6165320;23;20582;-78
2022/09/29 06:13:05;;;;;;;22.95;15.23;;;9.60;1.00;;;;;;6195513;23;20405;-81
2022/09/29 06:15:31;;;;;;;19.40;12.83;;;9.60;1.00;;;;;;6192370;23;20638;-81
2022/09/29 06:17:59;;;;;;;21.47;14.23;;;9.60;1.00;;;;;;6193460;23;20517;-81
2022/09/29 06:20:27;;;;;;;21.93;13.80;;;9.60;1.00;;;;;;6193880;23;20434;-80
2022/09/29 06:22:56;;;;;;;22.10;13.00;;;9.60;1.00;;;;;;6195595;23;20392;-82
2022/09/29 06:25:23;;;;;;;24.00;14.40;;;9.60;1.00;;;;;;6192490;23;20415;-81
2022/09/29 06:27:51;;;;;;;21.50;14.00;;;9.70;1.00;;;;;;6192995;23;20432;-82
2022/09/29 06:30:18;;;;;;;20.60;13.20;;;9.70;1.00;;;;;;6191355;23;20861;-81
2022/09/29 06:32:45;;;;;;;19.77;13.30;;;9.80;1.00;;;;;;6192929;23;20485;-81
2022/09/29 06:37:58;;;;;;;23.00;16.40;;;9.90;1.00;;;;;;6192801;23;20986;-82
2022/09/29 06:40:26;;;;;;;22.50;13.63;;;10.00;1.00;;;;;;6190479;23;20435;-82
2022/09/29 06:42:54;;;;;;;19.65;13.35;;;10.00;1.00;;;;;;6192678;23;20488;-82
2022/09/29 06:45:21;;;;;;;20.13;13.30;;;10.10;1.00;;;;;;6193260;23;20945;-82
2022/09/29 06:47:48;;;;;;;21.33;13.93;;;10.00;1.00;;;;;;6192131;23;20436;-81
2022/09/29 06:50:15;;;;;;;24.13;15.20;;;10.00;1.00;;;;;;6193322;23;21242;-81
2022/09/29 06:52:42;;;;;;;21.07;13.10;;;9.90;1.00;;;;;;6190737;23;21103;-81
2022/09/29 06:55:11;;;;;;;22.77;14.33;;;9.90;1.00;;;;;;6192312;23;21070;-81
2022/09/29 06:57:39;;;;;;;25.87;16.00;;;10.00;1.00;;;;;;6192889;23;21042;-82
2022/09/29 07:00:07;;;;;;;21.60;14.70;;;10.00;1.00;;;;;;6192159;23;20484;-82
2022/09/29 07:02:34;;;;;;;22.47;14.13;;;9.90;1.00;;;;;;6193455;23;20410;-82
2022/09/29 07:05:01;;;;;;;22.97;16.00;;;10.00;1.00;;;;;;6193898;23;20424;-80
2022/09/29 07:07:28;;;;;;;22.05;14.82;;;10.00;1.00;;;;;;6192154;23;20468;-81
2022/09/29 07:09:55;;;;;;;22.85;15.15;;;9.90;1.00;;;;;;6189651;23;20633;-81
2022/09/29 07:12:25;;;;;;;20.27;14.02;;;9.90;1.00;;;;;;6192533;23;20213;-80
2022/09/29 07:14:52;;;;;;;25.40;16.73;;;9.90;1.00;;;;;;6192521;23;20289;-81
2022/09/29 07:17:19;;;;;;;24.27;15.20;;;9.90;1.00;;;;;;6191690;23;20422;-80
2022/09/29 07:19:46;;;;;;;25.37;16.10;;;9.90;1.00;;;;;;6193041;23;20225;-81
2022/09/29 07:22:15;;;;;;;24.73;16.03;;;10.00;1.00;;;;;;6193976;23;20720;-84
2022/09/29 07:24:42;;;;;;;27.40;17.30;;;10.10;1.00;;;;;;6201491;23;20409;-83
2022/09/29 07:27:10;;;;;;;24.87;18.70;;;10.20;1.00;;;;;;6200112;23;20430;-84
2022/09/29 07:29:38;;;;;;;26.40;16.70;;;10.20;1.00;;;;;;6204619;23;20445;-83
2022/09/29 07:32:15;;;;;;;25.30;17.70;;;10.30;1.00;;;;;;6178925;23;20400;-85
2022/09/29 07:34:42;;;;;;;26.90;18.77;;;10.30;1.00;;;;;;6148254;23;20662;-84
2022/09/29 07:37:09;;;;;;;26.57;17.43;;;10.30;1.00;;;;;;6195140;23;21111;-83
2022/09/29 07:39:41;;;;;;;24.77;16.57;;;10.30;1.00;;;;;;6196426;23;20478;-83
2022/09/29 07:42:13;;;;;;;26.25;16.95;;;10.40;1.00;;;;;;6197138;23;21139;-83
2022/09/29 07:44:45;;;;;;;25.20;17.00;;;10.40;1.00;;;;;;6193683;23;20241;-84
2022/09/29 07:47:16;;;;;;;25.43;16.90;;;10.50;1.00;;;;;;6194934;23;20400;-83
2022/09/29 07:49:44;;;;;;;25.07;16.77;;;10.60;1.00;;;;;;6195028;23;20438;-83
2022/09/29 07:52:13;;;;;;;28.07;16.73;;;10.80;1.00;;;;;;6169442;23;20421;-84
2022/09/29 07:54:42;;;;;;;23.63;16.90;;;10.80;1.00;;;;;;6201325;23;20405;-84
2022/09/29 07:57:13;;;;;;;24.88;16.45;;;10.80;1.00;;;;;;6177530;23;20444;-83
2022/09/29 07:59:44;;;;;;;28.53;18.10;;;10.80;1.00;;;;;;6181745;23;21057;-84
2022/09/29 08:02:19;;;;;;;27.33;18.07;;;10.70;1.00;;;;;;6173619;23;20513;-84
2022/09/29 08:04:50;;;;;;;23.10;16.17;;;10.70;1.00;;;;;;6180280;23;20424;-84
2022/09/29 08:07:17;;;;;;;25.50;16.77;;;10.90;1.00;;;;;;6144528;23;20898;-84
2022/09/29 08:09:46;;;;;;;24.47;18.10;;;11.00;1.00;;;;;;6183885;23;20441;-84
2022/09/29 08:12:13;;;;;;;24.77;16.80;;;11.10;1.00;;;;;;6167895;23;20379;-84
2022/09/29 08:14:44;;;;;;;24.00;16.30;;;11.30;1.00;;;;;;6196792;23;20428;-86
2022/09/29 08:17:12;;;;;;;25.20;17.40;;;11.50;1.00;;;;;;6194969;23;20457;-83
2022/09/29 08:19:44;;;;;;;24.63;16.93;;;11.50;1.00;;;;;;6182653;23;21031;-83
2022/09/29 08:22:13;;;;;;;23.40;17.00;;;11.50;1.00;;;;;;6193092;23;20418;-83
2022/09/29 08:24:41;;;;;;;28.20;17.47;;;11.60;1.00;;;;;;6170181;23;20502;-85
2022/09/29 08:27:11;;;;;;;26.53;18.70;;;11.60;1.00;;;;;;6181882;22;20517;-85
2022/09/29 08:29:37;;;;;;;25.77;17.37;;;11.70;1.00;;;;;;6186355;23;20515;-81
2022/09/29 08:32:05;;;;;;;25.80;17.90;;;11.80;1.00;;;;;;6201592;23;20429;-81
2022/09/29 08:34:36;;;;;;;23.77;17.40;;;11.90;1.00;;;;;;6201119;23;20446;-83
2022/09/29 08:37:03;;;;;;;25.20;17.23;;;11.90;1.00;;;;;;6193910;23;20417;-81
2022/09/29 08:39:40;;;;;;;23.87;17.17;;;12.10;1.00;;;;;;6198552;23;20445;-83
2022/09/29 08:42:22;;;;;;;24.47;17.30;;;12.20;1.00;;;;;;6193293;23;20398;-80
2022/09/29 08:47:52;;;;;;;27.27;17.63;;;12.80;1.00;;;;;;6194744;23;20436;-80
2022/09/29 08:50:34;;;;;;;22.63;16.40;;;12.90;1.00;;;;;;6183112;23;20406;-80
2022/09/29 08:53:08;;;;;;;27.40;16.40;;;13.10;1.00;;;;;;6190462;23;20457;-83
2022/09/29 08:55:53;;;;;;;24.57;16.30;;;13.30;1.00;;;;;;6199249;23;20443;-79
2022/09/29 08:58:23;;;;;;;22.27;16.20;;;13.40;1.00;;;;;;6168641;23;21161;-80
2022/09/29 09:01:10;;;;;;;21.33;15.90;;;13.40;1.00;;;;;;6190762;23;20421;-80
2022/09/29 09:04:22;;;;;;;20.63;15.13;;;13.40;1.00;;;;;;6185983;23;20449;-80
2022/09/29 09:07:09;;;;;;;21.93;15.83;;;13.50;1.00;;;;;;6202375;23;20457;-80
2022/09/29 09:10:00;;;;;;;21.20;14.03;;;13.60;1.00;;;;;;6186907;23;20434;-79
2022/09/29 09:12:41;;;;;;;21.43;15.50;;;13.80;1.00;;;;;;6181807;23;20449;-79
2022/09/29 09:15:42;;;;;;;21.30;15.27;;;14.10;1.00;;;;;;6191289;23;20433;-81
2022/09/29 09:18:33;;;;;;;25.00;16.40;;;14.20;1.00;;;;;;6208006;23;20443;-82
2022/09/29 09:21:11;;;;;;;23.03;15.60;;;14.20;1.00;;;;;;6180708;23;20378;-80
2022/09/29 09:23:53;;;;;;;22.90;16.20;;;14.40;1.00;;;;;;6191646;23;20417;-80
2022/09/29 09:26:32;;;;;;;22.53;15.50;;;14.60;1.00;;;;;;6188452;23;20413;-82
2022/09/29 09:29:10;;;;;;;21.47;15.37;;;14.90;1.00;;;;;;6204358;23;20405;-80
2022/09/29 09:31:53;;;;;;;21.27;14.63;;;15.10;1.00;;;;;;6187581;23;20426;-81
2022/09/29 09:34:31;;;;;;;21.07;15.27;;;15.20;1.00;;;;;;6183079;23;20416;-81
2022/09/29 09:37:08;;;;;;;21.37;15.63;;;15.30;1.00;;;;;;6185079;23;20449;-81
2022/09/29 09:40:02;;;;;;;18.10;14.30;;;15.20;1.00;;;;;;6162683;23;20393;-79
2022/09/29 09:42:54;;;;;;;21.20;14.63;;;15.30;1.00;;;;;;6170026;23;20378;-79
2022/09/29 09:45:31;;;;;;;17.57;14.07;;;15.60;1.00;;;;;;6190362;23;20440;-80
2022/09/29 09:48:08;;;;;;;19.70;15.57;;;15.90;1.00;;;;;;6202079;23;20525;-81
2022/09/29 09:50:41;;;;;;;21.77;15.53;;;16.20;1.00;;;;;;6178544;23;20424;-84
2022/09/29 09:53:17;;;;;;;26.93;15.83;;;16.90;1.00;;;;;;6207239;23;20393;-82
2022/09/29 09:55:58;;;;;;;19.70;13.90;;;17.70;1.00;;;;;;6201609;23;20472;-86
2022/09/29 09:58:51;;;;;;;25.03;15.27;;;17.90;1.00;;;;;;6200610;23;20496;-84
2022/09/29 10:01:19;;;;;;;18.03;13.73;;;17.70;1.00;;;;;;6192563;23;20448;-86
2022/09/29 10:03:48;;;;;;;21.60;14.37;;;18.10;1.00;;;;;;6201179;23;20416;-86
2022/09/29 10:06:14;;;;;;;22.73;14.87;;;18.60;1.00;;;;;;6199008;23;20437;-87
2022/09/29 10:08:42;;;;;;;18.13;13.97;;;18.90;1.00;;;;;;6200370;23;20437;-83
2022/09/29 10:11:27;;;;;;;20.13;12.97;;;18.90;1.00;;;;;;6201449;23;20472;-85
2022/09/29 10:14:03;;;;;;;21.20;13.80;;;18.40;1.00;;;;;;6200784;23;20441;-86
2022/09/29 10:16:40;;;;;;;17.60;12.47;;;18.60;1.00;;;;;;6198248;23;20425;-84
2022/09/29 10:19:07;;;;;;;19.03;14.23;;;18.40;1.00;;;;;;6199992;23;20421;-85
2022/09/29 10:21:39;;;;;;;16.93;14.43;;;18.50;1.00;;;;;;6196945;23;20422;-86
2022/09/29 10:24:20;;;;;;;17.43;13.10;;;18.60;1.00;;;;;;6198486;23;20590;-85
2022/09/29 10:26:52;;;;;;;19.90;12.60;;;18.70;1.00;;;;;;6198132;23;20433;-85
2022/09/29 10:29:25;;;;;;;18.50;12.97;;;18.90;1.00;;;;;;6197152;23;20442;-85
2022/09/29 10:32:02;;;;;;;15.10;11.17;;;18.90;1.00;;;;;;6196989;23;20433;-84
2022/09/29 10:34:31;;;;;;;14.83;11.30;;;18.40;1.00;;;;;;6196380;23;20382;-85
2022/09/29 10:37:01;;;;;;;14.07;11.07;;;18.40;1.00;;;;;;6195095;23;20433;-86
2022/09/29 10:39:39;;;;;;;13.97;10.57;;;18.90;1.00;;;;;;6199740;23;20408;-87
2022/09/29 10:42:21;;;;;;;15.67;12.50;;;19.30;1.00;;;;;;6191522;23;20393;-86
2022/09/29 10:44:52;;;;;;;14.23;11.17;;;20.20;1.00;;;;;;6197907;23;21081;-85
2022/09/29 10:47:20;;;;;;;13.30;10.40;;;20.80;1.00;;;;;;6199271;23;20453;-87
2022/09/29 10:49:48;;;;;;;15.00;10.60;;;21.30;1.00;;;;;;6199756;23;20405;-87
2022/09/29 10:52:32;;;;;;;12.67;10.60;;;20.30;1.00;;;;;;6197914;23;20429;-84
2022/09/29 10:55:03;;;;;;;13.43;10.67;;;19.10;1.00;;;;;;6200679;23;20430;-84
2022/09/29 10:57:33;;;;;;;12.43;9.23;;;18.80;1.00;;;;;;6183371;23;20422;-84
2022/09/29 11:00:02;;;;;;;15.20;10.23;;;18.80;1.00;;;;;;6195973;23;20424;-82
2022/09/29 11:02:33;;;;;;;15.37;10.77;;;18.70;1.00;;;;;;6195826;23;20432;-80
2022/09/29 11:05:04;;;;;;;15.40;11.23;;;18.40;1.00;;;;;;6196024;23;20422;-82
2022/09/29 11:07:33;;;;;;;12.30;9.47;;;18.30;1.00;;;;;;6197760;23;20421;-82
2022/09/29 11:10:01;;;;;;;15.40;10.47;;;18.40;1.00;;;;;;6206644;23;20398;-82
2022/09/29 11:12:37;;;;;;;14.30;10.17;;;18.40;1.00;;;;;;6197293;23;20418;-81
2022/09/29 11:15:26;;;;;;;13.67;9.50;;;18.10;1.00;;;;;;6203987;23;20429;-81
2022/09/29 11:17:54;;;;;;;11.73;9.57;;;18.30;1.00;;;;;;6178855;23;20397;-82
2022/09/29 11:20:34;;;;;;;12.80;9.70;;;19.10;1.00;;;;;;6182600;23;20395;-81
2022/09/29 11:23:27;;;;;;;16.00;11.63;;;18.90;1.00;;;;;;6202470;23;20486;-80
2022/09/29 11:26:24;;;;;;;13.80;9.60;;;18.50;1.00;;;;;;6190025;23;21213;-81
2022/09/29 11:29:31;;;;;;;11.03;7.73;;;17.90;1.00;;;;;;6158104;23;20398;-85
2022/09/29 11:32:13;;;;;;;11.27;8.47;;;17.50;1.00;;;;;;6190454;23;20390;-81
2022/09/29 11:35:04;;;;;;;15.13;12.10;;;17.20;1.00;;;;;;6198129;23;20464;-84
2022/09/29 11:37:54;;;;;;;10.77;7.90;;;17.50;1.00;;;;;;6167098;23;21189;-85
2022/09/29 11:40:30;;;;;;;10.57;8.20;;;17.50;1.00;;;;;;6201470;23;20409;-83
2022/09/29 11:43:13;;;;;;;10.87;8.70;;;17.30;1.00;;;;;;6202399;23;20405;-85
2022/09/29 11:45:56;;;;;;;12.37;9.47;;;17.00;1.00;;;;;;6190239;23;20400;-83
2022/09/29 11:49:07;;;;;;;12.00;8.30;;;16.80;1.00;;;;;;6186108;23;20405;-85
2022/09/29 11:52:14;;;;;;;10.97;7.70;;;16.20;1.00;;;;;;6071810;23;20494;-83
2022/09/29 11:55:10;;;;;;;10.80;8.30;;;15.90;1.00;;;;;;6183879;23;20404;-83
2022/09/29 11:57:56;;;;;;;11.43;8.57;;;15.70;1.00;;;;;;6193894;23;21028;-79
2022/09/29 12:00:42;;;;;;;12.00;8.47;;;15.60;1.00;;;;;;6185655;23;20393;-80
2022/09/29 12:03:26;;;;;;;10.97;7.70;;;15.60;1.00;;;;;;6196900;23;20402;-80
2022/09/29 12:06:32;;;;;;;10.43;7.00;;;15.60;1.00;;;;;;6197189;23;20461;-80
2022/09/29 12:09:16;;;;;;;10.20;7.47;;;15.60;1.00;;;;;;6191470;23;20457;-82
2022/09/29 12:11:54;;;;;;;11.17;6.93;;;15.50;1.00;;;;;;6170132;23;20390;-80
2022/09/29 12:14:33;;;;;;;15.27;8.83;;;15.50;1.00;;;;;;6199218;23;20407;-80
2022/09/29 12:17:06;;;;;;;11.90;8.90;;;15.60;1.00;;;;;;6199638;23;20438;-77
2022/09/29 12:19:41;;;;;;;13.50;8.67;;;15.60;1.00;;;;;;6194596;23;20509;-78
2022/09/29 12:22:12;;;;;;;14.37;9.20;;;15.60;1.00;;;;;;6187290;23;20437;-78
2022/09/29 12:27:29;;;;;;;11.70;7.70;;;15.60;1.00;;;;;;6195377;23;20422;-78
2022/09/29 12:30:06;;;;;;;11.57;8.20;;;15.60;1.00;;;;;;6200596;23;20414;-78
2022/09/29 12:32:37;;;;;;;10.93;7.37;;;15.60;1.00;;;;;;6199258;23;20424;-77
2022/09/29 12:35:17;;;;;;;12.37;7.33;;;15.60;1.00;;;;;;6156392;23;20481;-78
2022/09/29 12:37:54;;;;;;;10.87;7.90;;;15.60;1.00;;;;;;6198012;23;20424;-80
2022/09/29 12:40:40;;;;;;;9.50;6.13;;;15.60;1.00;;;;;;6195563;23;20422;-77
2022/09/29 12:43:14;;;;;;;10.00;6.77;;;15.70;1.00;;;;;;6207557;23;20456;-78
2022/09/29 12:45:52;;;;;;;9.77;6.80;;;15.90;1.00;;;;;;6205036;23;20401;-77
2022/09/29 12:48:33;;;;;;;9.33;6.47;;;15.90;1.00;;;;;;6202474;23;20402;-79
2022/09/29 12:51:13;;;;;;;9.00;5.80;;;15.90;1.00;;;;;;6198520;23;20394;-78
2022/09/29 12:54:00;;;;;;;8.90;6.17;;;15.90;1.00;;;;;;6195061;23;20527;-78
2022/09/29 12:56:31;;;;;;;11.43;7.00;;;16.30;1.00;;;;;;6199542;23;20506;-79
2022/09/29 12:59:17;;;;;;;10.43;7.60;;;16.60;1.00;;;;;;6190236;23;20852;-81
2022/09/29 13:05:10;;;;;;;11.33;7.60;;;16.90;1.00;;;;;;6188175;23;22488;-80
2022/09/29 13:08:25;;;;;;;11.90;6.73;;;17.00;1.00;;;;;;6075142;23;20451;-81
2022/09/29 13:11:32;;;;;;;8.87;5.33;;;16.70;1.00;;;;;;6150134;23;20434;-80
2022/09/29 13:14:40;;;;;;;9.67;5.60;;;16.40;1.00;;;;;;6203712;23;20424;-80
2022/09/29 13:17:25;;;;;;;9.20;5.80;;;16.30;1.00;;;;;;6179281;23;20555;-80
2022/09/29 13:20:26;;;;;;;9.80;5.30;;;16.30;1.00;;;;;;6198176;23;20416;-81
2022/09/29 13:23:26;;;;;;;10.10;5.33;;;15.80;1.00;;;;;;6172328;23;20394;-80
2022/09/29 13:26:14;;;;;;;9.00;4.50;;;15.80;1.00;;;;;;6197493;23;20438;-80
2022/09/29 13:28:46;;;;;;;8.23;5.43;;;15.90;1.00;;;;;;6191825;23;21043;-79
2022/09/29 13:31:18;;;;;;;11.73;8.13;;;16.30;1.00;;;;;;6193651;23;20442;-79
2022/09/29 13:33:49;;;;;;;8.00;4.93;;;16.70;1.00;;;;;;6194535;23;20476;-80
2022/09/29 13:36:24;;;;;;;10.47;6.90;;;16.70;1.00;;;;;;6193662;23;20509;-80
2022/09/29 13:38:56;;;;;;;9.70;5.40;;;17.00;1.00;;;;;;6194996;23;20429;-80
2022/09/29 13:41:39;;;;;;;8.00;5.07;;;17.20;1.00;;;;;;6193525;23;20434;-81
2022/09/29 13:44:23;;;;;;;9.70;5.77;;;17.30;1.00;;;;;;6195071;23;20418;-80
2022/09/29 13:46:53;;;;;;;7.30;4.50;;;17.40;1.00;;;;;;6193647;23;20414;-81
2022/09/29 13:49:27;;;;;;;11.00;4.60;;;17.50;1.00;;;;;;6193682;23;20927;-80
2022/09/29 13:51:55;;;;;;;10.57;5.03;;;17.50;1.00;;;;;;6194150;23;20457;-79
2022/09/29 13:54:25;;;;;;;6.50;4.40;;;17.50;1.00;;;;;;6194618;23;20421;-80